sensor_id;sensor_type;location;lat;lon;timestamp;pressure;altitude;pressure_sealevel;temperature;humidity
20909;BME280;10614;53.198;6.570;2024-02-21T00:01:24;101956.06;;;8.75;100.00
20909;BME280;10614;53.198;6.570;2024-02-21T00:03:26;101964.91;;;8.70;100.00
20909;BME280;10614;53.198;6.570;2024-02-21T00:05:27;101951.00;;;8.61;100.00
20909;BME280;10614;53.198;6.570;2024-02-21T00:07:29;101955.63;;;8.45;100.00
20909;BME280;10614;53.198;6.570;2024-02-21T00:09:30;101954.81;;;8.39;100.00
20909;BME280;10614;53.198;6.570;2024-02-21T00:11:32;101920.88;;;8.23;100.00
20909;BME280;10614;53.198;6.570;2024-02-21T00:13:34;101933.09;;;8.26;100.00
20909;BME280;10614;53.198;6.570;2024-02-21T00:15:37;101947.13;;;8.23;100.00
20909;BME280;10614;53.198;6.570;2024-02-21T00:17:39;101945.47;;;8.16;100.00
20909;BME280;10614;53.198;6.570;2024-02-21T00:19:41;101907.28;;;7.94;100.00
20909;BME280;10614;53.198;6.570;2024-02-21T00:21:43;101921.16;;;8.03;100.00
20909;BME280;10614;53.198;6.570;2024-02-21T00:23:44;101906.34;;;7.99;100.00
20909;BME280;10614;53.198;6.570;2024-02-21T00:25:46;101928.91;;;8.11;100.00
20909;BME280;10614;53.198;6.570;2024-02-21T00:27:48;101908.00;;;8.05;100.00
20909;BME280;10614;53.198;6.570;2024-02-21T00:29:50;101895.06;;;7.91;100.00
20909;BME280;10614;53.198;6.570;2024-02-21T00:31:53;101905.44;;;8.02;100.00
20909;BME280;10614;53.198;6.570;2024-02-21T00:33:55;101912.38;;;8.06;100.00
20909;BME280;10614;53.198;6.570;2024-02-21T00:35:56;101879.47;;;7.82;100.00
20909;BME280;10614;53.198;6.570;2024-02-21T00:37:58;101894.19;;;7.91;100.00
20909;BME280;10614;53.198;6.570;2024-02-21T00:40:00;101903.75;;;7.96;100.00
20909;BME280;10614;53.198;6.570;2024-02-21T00:42:02;101889.75;;;7.96;100.00
20909;BME280;10614;53.198;6.570;2024-02-21T00:44:04;101884.56;;;7.94;100.00
20909;BME280;10614;53.198;6.570;2024-02-21T00:46:07;101889.81;;;7.94;100.00
20909;BME280;10614;53.198;6.570;2024-02-21T00:48:09;101882.81;;;7.93;100.00
20909;BME280;10614;53.198;6.570;2024-02-21T00:50:11;101875.84;;;7.92;100.00
20909;BME280;10614;53.198;6.570;2024-02-21T00:52:13;101879.38;;;7.88;100.00
20909;BME280;10614;53.198;6.570;2024-02-21T00:54:15;101878.50;;;7.88;100.00
20909;BME280;10614;53.198;6.570;2024-02-21T00:56:17;101879.38;;;7.88;100.00
20909;BME280;10614;53.198;6.570;2024-02-21T00:58:19;101872.38;;;7.89;100.00
20909;BME280;10614;53.198;6.570;2024-02-21T01:00:22;101870.63;;;7.89;100.00
20909;BME280;10614;53.198;6.570;2024-02-21T01:02:22;101883.75;;;7.88;100.00
20909;BME280;10614;53.198;6.570;2024-02-21T01:04:26;101874.13;;;7.88;100.00
20909;BME280;10614;53.198;6.570;2024-02-21T01:06:28;101876.75;;;7.88;100.00
20909;BME280;10614;53.198;6.570;2024-02-21T01:08:29;101874.94;;;7.93;100.00
20909;BME280;10614;53.198;6.570;2024-02-21T01:10:31;101876.63;;;7.97;100.00
20909;BME280;10614;53.198;6.570;2024-02-21T01:12:33;101865.41;;;7.86;100.00
20909;BME280;10614;53.198;6.570;2024-02-21T01:14:36;101863.53;;;7.99;100.00
20909;BME280;10614;53.198;6.570;2024-02-21T01:16:37;101859.25;;;7.92;100.00
20909;BME280;10614;53.198;6.570;2024-02-21T01:18:39;101869.63;;;7.99;100.00
20909;BME280;10614;53.198;6.570;2024-02-21T01:20:43;101856.53;;;7.99;100.00
20909;BME280;10614;53.198;6.570;2024-02-21T01:22:45;101869.56;;;8.06;100.00
20909;BME280;10614;53.198;6.570;2024-02-21T01:24:46;101866.03;;;8.07;100.00
20909;BME280;10614;53.198;6.570;2024-02-21T01:26:49;101875.63;;;8.09;100.00
20909;BME280;10614;53.198;6.570;2024-02-21T01:28:50;101871.28;;;8.07;100.00
20909;BME280;10614;53.198;6.570;2024-02-21T01:30:52;101854.75;;;8.00;100.00
20909;BME280;10614;53.198;6.570;2024-02-21T01:32:54;101860.81;;;8.05;100.00
20909;BME280;10614;53.198;6.570;2024-02-21T01:34:56;101858.22;;;8.03;100.00
20909;BME280;10614;53.198;6.570;2024-02-21T01:36:59;101860.00;;;8.01;100.00
20909;BME280;10614;53.198;6.570;2024-02-21T01:39:04;101859.16;;;7.98;100.00
20909;BME280;10614;53.198;6.570;2024-02-21T01:41:06;101867.97;;;7.92;100.00
20909;BME280;10614;53.198;6.570;2024-02-21T01:43:15;101860.16;;;7.86;100.00
20909;BME280;10614;53.198;6.570;2024-02-21T01:45:17;101864.59;;;7.82;100.00
20909;BME280;10614;53.198;6.570;2024-02-21T01:47:19;101853.28;;;7.79;100.00
20909;BME280;10614;53.198;6.570;2024-02-21T01:49:21;101855.03;;;7.80;100.00
20909;BME280;10614;53.198;6.570;2024-02-21T01:51:22;101842.78;;;7.80;100.00
20909;BME280;10614;53.198;6.570;2024-02-21T01:53:29;101858.50;;;7.82;100.00
20909;BME280;10614;53.198;6.570;2024-02-21T01:55:33;101849.78;;;7.80;100.00
20909;BME280;10614;53.198;6.570;2024-02-21T01:57:35;101845.41;;;7.82;100.00
20909;BME280;10614;53.198;6.570;2024-02-21T01:59:38;101850.66;;;7.80;100.00
20909;BME280;10614;53.198;6.570;2024-02-21T02:01:40;101835.81;;;7.78;100.00
20909;BME280;10614;53.198;6.570;2024-02-21T02:03:45;101846.31;;;7.75;100.00
20909;BME280;10614;53.198;6.570;2024-02-21T02:05:48;101838.56;;;7.69;100.00
20909;BME280;10614;53.198;6.570;2024-02-21T02:07:49;101844.59;;;7.72;100.00
20909;BME280;10614;53.198;6.570;2024-02-21T02:09:52;101843.84;;;7.64;100.00
20909;BME280;10614;53.198;6.570;2024-02-21T02:11:54;101828.13;;;7.64;100.00
20909;BME280;10614;53.198;6.570;2024-02-21T02:13:58;101830.75;;;7.66;100.00
20909;BME280;10614;53.198;6.570;2024-02-21T02:15:59;101834.22;;;7.66;100.00
20909;BME280;10614;53.198;6.570;2024-02-21T02:18:01;101800.31;;;7.51;100.00
20909;BME280;10614;53.198;6.570;2024-02-21T02:20:02;101816.75;;;7.67;100.00
20909;BME280;10614;53.198;6.570;2024-02-21T02:22:09;101801.13;;;7.59;100.00
20909;BME280;10614;53.198;6.570;2024-02-21T02:24:16;101830.75;;;7.64;100.00
20909;BME280;10614;53.198;6.570;2024-02-21T02:26:19;101837.69;;;7.67;100.00
20909;BME280;10614;53.198;6.570;2024-02-21T02:28:21;101797.66;;;7.55;100.00
20909;BME280;10614;53.198;6.570;2024-02-21T02:30:23;101817.69;;;7.59;100.00
20909;BME280;10614;53.198;6.570;2024-02-21T02:32:24;101830.69;;;7.67;100.00
20909;BME280;10614;53.198;6.570;2024-02-21T02:34:26;101826.28;;;7.72;100.00
20909;BME280;10614;53.198;6.570;2024-02-21T02:36:28;101822.81;;;7.70;100.00
20909;BME280;10614;53.198;6.570;2024-02-21T02:38:28;101828.94;;;7.68;100.00
20909;BME280;10614;53.198;6.570;2024-02-21T02:40:33;101814.13;;;7.67;100.00
20909;BME280;10614;53.198;6.570;2024-02-21T02:42:34;101810.63;;;7.66;100.00
20909;BME280;10614;53.198;6.570;2024-02-21T02:44:36;101799.25;;;7.70;100.00
20909;BME280;10614;53.198;6.570;2024-02-21T02:46:40;101793.97;;;7.72;100.00
20909;BME280;10614;53.198;6.570;2024-02-21T02:48:42;101794.81;;;7.72;100.00
20909;BME280;10614;53.198;6.570;2024-02-21T02:50:45;101794.00;;;7.70;100.00
20909;BME280;10614;53.198;6.570;2024-02-21T02:52:47;101784.38;;;7.69;100.00
20909;BME280;10614;53.198;6.570;2024-02-21T02:54:49;101786.16;;;7.69;100.00
20909;BME280;10614;53.198;6.570;2024-02-21T02:56:53;101786.91;;;7.77;100.00
20909;BME280;10614;53.198;6.570;2024-02-21T02:58:55;101789.56;;;7.72;100.00
20909;BME280;10614;53.198;6.570;2024-02-21T03:00:57;101788.72;;;7.73;100.00
20909;BME280;10614;53.198;6.570;2024-02-21T03:02:59;101781.75;;;7.71;100.00
20909;BME280;10614;53.198;6.570;2024-02-21T03:05:00;101769.63;;;7.64;100.00
20909;BME280;10614;53.198;6.570;2024-02-21T03:07:02;101775.78;;;7.61;100.00
20909;BME280;10614;53.198;6.570;2024-02-21T03:09:03;101784.41;;;7.68;100.00
20909;BME280;10614;53.198;6.570;2024-02-21T03:11:08;101784.31;;;7.75;100.00
20909;BME280;10614;53.198;6.570;2024-02-21T03:13:12;101783.47;;;7.73;100.00
20909;BME280;10614;53.198;6.570;2024-02-21T03:15:14;101765.25;;;7.64;100.00
20909;BME280;10614;53.198;6.570;2024-02-21T03:17:16;101766.94;;;7.67;100.00
20909;BME280;10614;53.198;6.570;2024-02-21T03:19:18;101780.81;;;7.75;100.00
20909;BME280;10614;53.198;6.570;2024-02-21T03:21:20;101782.53;;;7.77;100.00
20909;BME280;10614;53.198;6.570;2024-02-21T03:23:22;101781.66;;;7.77;100.00
20909;BME280;10614;53.198;6.570;2024-02-21T03:25:24;101776.41;;;7.78;100.00
20909;BME280;10614;53.198;6.570;2024-02-21T03:27:25;101778.13;;;7.81;100.00
20909;BME280;10614;53.198;6.570;2024-02-21T03:29:29;101785.06;;;7.83;100.00
20909;BME280;10614;53.198;6.570;2024-02-21T03:31:30;101777.25;;;7.80;100.00
20909;BME280;10614;53.198;6.570;2024-02-21T03:33:32;101772.88;;;7.81;100.00
20909;BME280;10614;53.198;6.570;2024-02-21T03:35:33;101779.81;;;7.85;100.00
20909;BME280;10614;53.198;6.570;2024-02-21T03:37:35;101786.81;;;7.83;100.00
20909;BME280;10614;53.198;6.570;2024-02-21T03:39:36;101791.22;;;7.81;100.00
20909;BME280;10614;53.198;6.570;2024-02-21T03:41:38;101751.28;;;7.62;100.00
20909;BME280;10614;53.198;6.570;2024-02-21T03:43:39;101776.47;;;7.74;100.00
20909;BME280;10614;53.198;6.570;2024-02-21T03:45:42;101787.72;;;7.82;100.00
20909;BME280;10614;53.198;6.570;2024-02-21T03:47:44;101774.63;;;7.79;100.00
20909;BME280;10614;53.198;6.570;2024-02-21T03:49:45;101776.28;;;7.86;100.00
20909;BME280;10614;53.198;6.570;2024-02-21T03:51:47;101781.50;;;7.89;100.00
20909;BME280;10614;53.198;6.570;2024-02-21T03:53:49;101776.28;;;7.86;100.00
20909;BME280;10614;53.198;6.570;2024-02-21T03:55:49;101776.28;;;7.88;100.00
20909;BME280;10614;53.198;6.570;2024-02-21T03:57:51;101781.50;;;7.89;100.00
20909;BME280;10614;53.198;6.570;2024-02-21T03:59:52;101763.16;;;7.89;100.00
20909;BME280;10614;53.198;6.570;2024-02-21T04:01:55;101765.06;;;7.76;100.00
20909;BME280;10614;53.198;6.570;2024-02-21T04:03:57;101762.38;;;7.81;100.00
20909;BME280;10614;53.198;6.570;2024-02-21T04:05:58;101757.06;;;7.86;100.00
20909;BME280;10614;53.198;6.570;2024-02-21T04:08:03;101758.91;;;7.82;100.00
20909;BME280;10614;53.198;6.570;2024-02-21T04:10:06;101766.78;;;7.79;100.00
20909;BME280;10614;53.198;6.570;2024-02-21T04:12:08;101735.56;;;7.62;100.00
20909;BME280;10614;53.198;6.570;2024-02-21T04:14:10;101762.50;;;7.72;100.00
20909;BME280;10614;53.198;6.570;2024-02-21T04:16:12;101759.88;;;7.72;100.00
20909;BME280;10614;53.198;6.570;2024-02-21T04:18:16;101757.31;;;7.69;100.00
20909;BME280;10614;53.198;6.570;2024-02-21T04:20:18;101729.47;;;7.58;100.00
20909;BME280;10614;53.198;6.570;2024-02-21T04:22:20;101758.13;;;7.72;100.00
20909;BME280;10614;53.198;6.570;2024-02-21T04:24:20;101759.88;;;7.73;100.00
20909;BME280;10614;53.198;6.570;2024-02-21T04:26:22;101769.44;;;7.76;100.00
20909;BME280;10614;53.198;6.570;2024-02-21T04:28:25;101746.00;;;7.67;100.00
20909;BME280;10614;53.198;6.570;2024-02-21T04:30:26;101754.59;;;7.76;100.00
20909;BME280;10614;53.198;6.570;2024-02-21T04:32:28;101764.22;;;7.76;100.00
20909;BME280;10614;53.198;6.570;2024-02-21T04:34:32;101758.19;;;7.69;100.00
20909;BME280;10614;53.198;6.570;2024-02-21T04:36:34;101754.63;;;7.73;100.00
20909;BME280;10614;53.198;6.570;2024-02-21T04:38:36;101748.53;;;7.73;100.00
20909;BME280;10614;53.198;6.570;2024-02-21T04:40:39;101752.00;;;7.73;100.00
20909;BME280;10614;53.198;6.570;2024-02-21T04:42:40;101751.97;;;7.78;100.00
20909;BME280;10614;53.198;6.570;2024-02-21T04:44:41;101742.44;;;7.71;100.00
20909;BME280;10614;53.198;6.570;2024-02-21T04:46:43;101720.56;;;7.72;100.00
20909;BME280;10614;53.198;6.570;2024-02-21T04:48:45;101730.91;;;7.82;100.00
20909;BME280;10614;53.198;6.570;2024-02-21T04:50:49;101744.03;;;7.82;100.00
20909;BME280;10614;53.198;6.570;2024-02-21T04:52:51;101736.13;;;7.84;100.00
20909;BME280;10614;53.198;6.570;2024-02-21T04:54:52;101719.53;;;7.83;100.00
20909;BME280;10614;53.198;6.570;2024-02-21T04:56:54;101708.31;;;7.75;100.00
20909;BME280;10614;53.198;6.570;2024-02-21T04:58:56;101719.50;;;7.87;100.00
20909;BME280;10614;53.198;6.570;2024-02-21T05:00:58;101726.47;;;7.86;100.00
20909;BME280;10614;53.198;6.570;2024-02-21T05:02:59;101719.53;;;7.85;100.00
20909;BME280;10614;53.198;6.570;2024-02-21T05:05:01;101715.22;;;7.79;100.00
20909;BME280;10614;53.198;6.570;2024-02-21T05:07:05;101717.81;;;7.81;100.00
20909;BME280;10614;53.198;6.570;2024-02-21T05:09:07;101719.53;;;7.83;100.00
20909;BME280;10614;53.198;6.570;2024-02-21T05:11:10;101719.50;;;7.87;100.00
20909;BME280;10614;53.198;6.570;2024-02-21T05:13:12;101720.31;;;7.89;100.00
20909;BME280;10614;53.198;6.570;2024-02-21T05:15:14;101712.50;;;7.87;100.00
20909;BME280;10614;53.198;6.570;2024-02-21T05:17:16;101713.38;;;7.86;100.00
20909;BME280;10614;53.198;6.570;2024-02-21T05:19:17;101701.25;;;7.80;100.00
20909;BME280;10614;53.198;6.570;2024-02-21T05:21:19;101717.72;;;7.89;100.00
20909;BME280;10614;53.198;6.570;2024-02-21T05:23:23;101704.59;;;7.90;100.00
20909;BME280;10614;53.198;6.570;2024-02-21T05:25:24;101713.28;;;7.92;100.00
20909;BME280;10614;53.198;6.570;2024-02-21T05:27:26;101705.44;;;7.92;100.00
20909;BME280;10614;53.198;6.570;2024-02-21T05:29:28;101707.16;;;7.93;100.00
20909;BME280;10614;53.198;6.570;2024-02-21T05:31:54;101705.44;;;7.91;100.00
20909;BME280;10614;53.198;6.570;2024-02-21T05:33:56;101710.69;;;7.91;100.00
20909;BME280;10614;53.198;6.570;2024-02-21T05:35:59;101717.69;;;7.92;100.00
20909;BME280;10614;53.198;6.570;2024-02-21T05:38:00;101706.28;;;7.93;100.00
20909;BME280;10614;53.198;6.570;2024-02-21T05:40:08;101700.19;;;7.92;100.00
20909;BME280;10614;53.198;6.570;2024-02-21T05:42:13;101695.78;;;7.94;100.00
20909;BME280;10614;53.198;6.570;2024-02-21T05:44:14;101684.53;;;7.86;100.00
20909;BME280;10614;53.198;6.570;2024-02-21T05:46:19;101695.00;;;7.89;100.00
20909;BME280;10614;53.198;6.570;2024-02-21T05:48:22;101701.09;;;7.90;100.00
20909;BME280;10614;53.198;6.570;2024-02-21T05:50:24;101690.56;;;7.91;100.00
20909;BME280;10614;53.198;6.570;2024-02-21T05:52:27;101677.53;;;7.88;100.00
20909;BME280;10614;53.198;6.570;2024-02-21T05:54:29;101661.03;;;7.81;100.00
20909;BME280;10614;53.198;6.570;2024-02-21T05:56:32;101687.94;;;7.93;100.00
20909;BME280;10614;53.198;6.570;2024-02-21T05:58:33;101643.78;;;7.68;100.00
20909;BME280;10614;53.198;6.570;2024-02-21T06:00:35;101673.13;;;7.90;100.00
20909;BME280;10614;53.198;6.570;2024-02-21T06:02:37;101663.56;;;7.86;100.00
20909;BME280;10614;53.198;6.570;2024-02-21T06:04:37;101651.38;;;7.85;100.00
20909;BME280;10614;53.198;6.570;2024-02-21T06:06:40;101667.88;;;7.90;100.00
20909;BME280;10614;53.198;6.570;2024-02-21T06:08:41;101671.41;;;7.89;100.00
20909;BME280;10614;53.198;6.570;2024-02-21T06:10:43;101675.75;;;7.92;100.00
20909;BME280;10614;53.198;6.570;2024-02-21T06:12:47;101673.97;;;7.92;100.00
20909;BME280;10614;53.198;6.570;2024-02-21T06:14:48;101672.22;;;7.93;100.00
20909;BME280;10614;53.198;6.570;2024-02-21T06:16:50;101650.59;;;7.80;100.00
20909;BME280;10614;53.198;6.570;2024-02-21T06:18:52;101642.72;;;7.78;100.00
20909;BME280;10614;53.198;6.570;2024-02-21T06:20:54;101653.88;;;7.91;100.00
20909;BME280;10614;53.198;6.570;2024-02-21T06:22:56;101639.13;;;7.84;100.00
20909;BME280;10614;53.198;6.570;2024-02-21T06:24:59;101646.13;;;7.85;100.00
20909;BME280;10614;53.198;6.570;2024-02-21T06:27:01;101650.44;;;7.89;100.00
20909;BME280;10614;53.198;6.570;2024-02-21T06:29:04;101642.59;;;7.86;100.00
20909;BME280;10614;53.198;6.570;2024-02-21T06:31:06;101619.22;;;7.75;100.00
20909;BME280;10614;53.198;6.570;2024-02-21T06:33:08;101625.25;;;7.79;100.00
20909;BME280;10614;53.198;6.570;2024-02-21T06:35:09;101643.50;;;7.87;100.00
20909;BME280;10614;53.198;6.570;2024-02-21T06:37:10;101650.41;;;7.91;100.00
20909;BME280;10614;53.198;6.570;2024-02-21T06:39:13;101653.00;;;7.92;100.00
20909;BME280;10614;53.198;6.570;2024-02-21T06:41:15;101633.09;;;7.82;100.00
20909;BME280;10614;53.198;6.570;2024-02-21T06:43:20;101651.25;;;7.93;100.00
20909;BME280;10614;53.198;6.570;2024-02-21T06:45:24;101646.00;;;7.91;100.00
20909;BME280;10614;53.198;6.570;2024-02-21T06:47:26;101649.47;;;7.95;100.00
20909;BME280;10614;53.198;6.570;2024-02-21T06:49:28;101658.19;;;7.95;100.00
20909;BME280;10614;53.198;6.570;2024-02-21T06:51:30;101654.72;;;7.95;100.00
20909;BME280;10614;53.198;6.570;2024-02-21T06:53:32;101636.50;;;7.84;100.00
20909;BME280;10614;53.198;6.570;2024-02-21T06:55:35;101645.19;;;7.89;100.00
20909;BME280;10614;53.198;6.570;2024-02-21T06:57:37;101644.22;;;7.95;100.00
20909;BME280;10614;53.198;6.570;2024-02-21T06:59:39;101643.38;;;7.94;100.00
20909;BME280;10614;53.198;6.570;2024-02-21T07:01:45;101638.34;;;7.80;100.00
20909;BME280;10614;53.198;6.570;2024-02-21T07:03:47;101655.63;;;7.92;100.00
20909;BME280;10614;53.198;6.570;2024-02-21T07:05:48;101655.63;;;7.92;100.00
20909;BME280;10614;53.198;6.570;2024-02-21T07:07:50;101637.34;;;7.88;100.00
20909;BME280;10614;53.198;6.570;2024-02-21T07:09:52;101632.13;;;7.86;100.00
20909;BME280;10614;53.198;6.570;2024-02-21T07:11:54;101650.38;;;7.94;100.00
20909;BME280;10614;53.198;6.570;2024-02-21T07:13:57;101650.31;;;7.97;100.00
20909;BME280;10614;53.198;6.570;2024-02-21T07:15:59;101631.25;;;7.87;100.00
20909;BME280;10614;53.198;6.570;2024-02-21T07:18:03;101644.22;;;7.93;100.00
20909;BME280;10614;53.198;6.570;2024-02-21T07:20:06;101637.28;;;7.92;100.00
20909;BME280;10614;53.198;6.570;2024-02-21T07:22:09;101639.06;;;7.90;100.00
20909;BME280;10614;53.198;6.570;2024-02-21T07:24:11;101636.44;;;7.90;100.00
20909;BME280;10614;53.198;6.570;2024-02-21T07:26:12;101634.72;;;7.88;100.00
20909;BME280;10614;53.198;6.570;2024-02-21T07:28:14;101623.47;;;7.81;100.00
20909;BME280;10614;53.198;6.570;2024-02-21T07:30:18;101627.78;;;7.85;100.00
20909;BME280;10614;53.198;6.570;2024-02-21T07:32:20;101620.78;;;7.84;100.00
20909;BME280;10614;53.198;6.570;2024-02-21T07:34:22;101620.78;;;7.86;100.00
20909;BME280;10614;53.198;6.570;2024-02-21T07:36:29;101618.09;;;7.89;100.00
20909;BME280;10614;53.198;6.570;2024-02-21T07:38:31;101617.22;;;7.88;100.00
20909;BME280;10614;53.198;6.570;2024-02-21T07:40:33;101615.44;;;7.92;100.00
20909;BME280;10614;53.198;6.570;2024-02-21T07:42:35;101617.16;;;7.94;100.00
20909;BME280;10614;53.198;6.570;2024-02-21T07:44:37;101611.91;;;7.94;100.00
20909;BME280;10614;53.198;6.570;2024-02-21T07:46:39;101600.50;;;7.97;100.00
20909;BME280;10614;53.198;6.570;2024-02-21T07:48:41;101603.09;;;7.98;100.00
20909;BME280;10614;53.198;6.570;2024-02-21T07:50:43;101598.66;;;8.02;100.00
20909;BME280;10614;53.198;6.570;2024-02-21T07:52:45;101598.59;;;8.05;100.00
20909;BME280;10614;53.198;6.570;2024-02-21T07:54:47;101588.94;;;8.09;100.00
20909;BME280;10614;53.198;6.570;2024-02-21T07:56:49;101583.59;;;8.13;100.00
20909;BME280;10614;53.198;6.570;2024-02-21T07:58:53;101582.75;;;8.11;100.00
20909;BME280;10614;53.198;6.570;2024-02-21T08:00:55;101568.88;;;8.06;100.00
20909;BME280;10614;53.198;6.570;2024-02-21T08:02:57;101575.88;;;8.06;100.00
20909;BME280;10614;53.198;6.570;2024-02-21T08:04:59;101584.41;;;8.17;100.00
20909;BME280;10614;53.198;6.570;2024-02-21T08:07:03;101593.09;;;8.19;100.00
20909;BME280;10614;53.198;6.570;2024-02-21T08:09:04;101592.19;;;8.21;100.00
20909;BME280;10614;53.198;6.570;2024-02-21T08:11:06;101593.94;;;8.21;100.00
20909;BME280;10614;53.198;6.570;2024-02-21T08:13:08;101592.16;;;8.23;100.00
20909;BME280;10614;53.198;6.570;2024-02-21T08:15:10;101566.19;;;8.08;100.00
20909;BME280;10614;53.198;6.570;2024-02-21T08:17:12;101576.53;;;8.17;100.00
20909;BME280;10614;53.198;6.570;2024-02-21T08:19:14;101587.84;;;8.20;100.00
20909;BME280;10614;53.198;6.570;2024-02-21T08:21:17;101581.78;;;8.17;100.00
20909;BME280;10614;53.198;6.570;2024-02-21T08:23:23;101586.06;;;8.21;100.00
20909;BME280;10614;53.198;6.570;2024-02-21T08:25:25;101567.88;;;8.13;100.00
20909;BME280;10614;53.198;6.570;2024-02-21T08:27:26;101579.06;;;8.21;100.00
20909;BME280;10614;53.198;6.570;2024-02-21T08:29:28;101566.88;;;8.19;100.00
20909;BME280;10614;53.198;6.570;2024-02-21T08:31:30;101562.47;;;8.22;100.00
20909;BME280;10614;53.198;6.570;2024-02-21T08:33:32;101565.00;;;8.27;100.00
20909;BME280;10614;53.198;6.570;2024-02-21T08:35:34;101575.41;;;8.32;100.00
20909;BME280;10614;53.198;6.570;2024-02-21T08:37:36;101568.41;;;8.31;100.00
20909;BME280;10614;53.198;6.570;2024-02-21T08:39:38;101557.03;;;8.32;100.00
20909;BME280;10614;53.198;6.570;2024-02-21T08:41:40;101550.03;;;8.32;100.00
20909;BME280;10614;53.198;6.570;2024-02-21T08:43:42;101545.69;;;8.31;100.00
20909;BME280;10614;53.198;6.570;2024-02-21T08:45:44;101540.41;;;8.33;100.00
20909;BME280;10614;53.198;6.570;2024-02-21T08:47:46;101535.16;;;8.33;100.00
20909;BME280;10614;53.198;6.570;2024-02-21T08:49:48;101547.38;;;8.34;100.00
20909;BME280;10614;53.198;6.570;2024-02-21T08:51:49;101531.75;;;8.29;100.00
20909;BME280;10614;53.198;6.570;2024-02-21T08:53:50;101540.41;;;8.33;100.00
20909;BME280;10614;53.198;6.570;2024-02-21T08:55:55;101536.91;;;8.32;100.00
20909;BME280;10614;53.198;6.570;2024-02-21T08:57:57;101535.09;;;8.36;100.00
20909;BME280;10614;53.198;6.570;2024-02-21T08:59:59;101530.72;;;8.36;100.00
20909;BME280;10614;53.198;6.570;2024-02-21T09:02:01;101532.44;;;8.37;100.00
20909;BME280;10614;53.198;6.570;2024-02-21T09:04:04;101520.22;;;8.36;100.00
20909;BME280;10614;53.198;6.570;2024-02-21T09:06:07;101489.09;;;8.19;100.00
20909;BME280;10614;53.198;6.570;2024-02-21T09:08:09;101501.88;;;8.36;100.00
20909;BME280;10614;53.198;6.570;2024-02-21T09:10:11;101502.69;;;8.38;100.00
20909;BME280;10614;53.198;6.570;2024-02-21T09:12:14;101506.19;;;8.37;100.00
20909;BME280;10614;53.198;6.570;2024-02-21T09:14:16;101498.28;;;8.40;100.00
20909;BME280;10614;53.198;6.570;2024-02-21T09:16:18;101493.00;;;8.43;100.00
20909;BME280;10614;53.198;6.570;2024-02-21T09:18:19;101502.59;;;8.44;100.00
20909;BME280;10614;53.198;6.570;2024-02-21T09:20:21;101505.19;;;8.46;100.00
20909;BME280;10614;53.198;6.570;2024-02-21T09:22:23;101503.44;;;8.45;100.00
20909;BME280;10614;53.198;6.570;2024-02-21T09:24:25;101491.38;;;8.35;100.00
20909;BME280;10614;53.198;6.570;2024-02-21T09:26:26;101499.13;;;8.42;100.00
20909;BME280;10614;53.198;6.570;2024-02-21T09:28:29;101491.28;;;8.39;100.00
20909;BME280;10614;53.198;6.570;2024-02-21T09:30:31;101506.03;;;8.48;100.00
20909;BME280;10614;53.198;6.570;2024-02-21T09:32:34;101500.81;;;8.47;100.00
20909;BME280;10614;53.198;6.570;2024-02-21T09:34:36;101517.31;;;8.52;100.00
20909;BME280;10614;53.198;6.570;2024-02-21T09:36:37;101488.63;;;8.42;100.00
20909;BME280;10614;53.198;6.570;2024-02-21T09:38:40;101488.63;;;8.42;100.00
20909;BME280;10614;53.198;6.570;2024-02-21T09:40:43;101491.03;;;8.53;100.00
20909;BME280;10614;53.198;6.570;2024-02-21T09:42:47;101491.97;;;8.51;100.00
20909;BME280;10614;53.198;6.570;2024-02-21T09:44:50;101493.75;;;8.50;100.00
20909;BME280;10614;53.198;6.570;2024-02-21T09:46:56;101493.69;;;8.52;100.00
20909;BME280;10614;53.198;6.570;2024-02-21T09:49:06;101476.16;;;8.54;100.00
20909;BME280;10614;53.198;6.570;2024-02-21T09:51:11;101488.44;;;8.52;100.00
20909;BME280;10614;53.198;6.570;2024-02-21T09:53:16;101479.69;;;8.53;100.00
20909;BME280;10614;53.198;6.570;2024-02-21T09:55:18;101478.78;;;8.54;100.00
20909;BME280;10614;53.198;6.570;2024-02-21T09:57:22;101476.16;;;8.54;100.00
20909;BME280;10614;53.198;6.570;2024-02-21T09:59:27;101472.66;;;8.55;100.00
20909;BME280;10614;53.198;6.570;2024-02-21T10:01:31;101463.94;;;8.53;100.00
20909;BME280;10614;53.198;6.570;2024-02-21T10:03:34;101457.78;;;8.54;100.00
20909;BME280;10614;53.198;6.570;2024-02-21T10:05:36;101454.22;;;8.56;100.00
20909;BME280;10614;53.198;6.570;2024-02-21T10:07:39;101448.97;;;8.58;100.00
20909;BME280;10614;53.198;6.570;2024-02-21T10:09:40;101448.06;;;8.59;100.00
20909;BME280;10614;53.198;6.570;2024-02-21T10:11:42;101448.78;;;8.65;100.00
20909;BME280;10614;53.198;6.570;2024-02-21T10:13:44;101443.50;;;8.67;100.00
20909;BME280;10614;53.198;6.570;2024-02-21T10:15:47;101432.09;;;8.68;100.00
20909;BME280;10614;53.198;6.570;2024-02-21T10:17:58;101434.72;;;8.68;100.00
20909;BME280;10614;53.198;6.570;2024-02-21T10:20:07;101436.47;;;8.69;100.00
20909;BME280;10614;53.198;6.570;2024-02-21T10:22:10;101434.78;;;8.66;100.00
20909;BME280;10614;53.198;6.570;2024-02-21T10:24:12;101425.22;;;8.64;100.00
20909;BME280;10614;53.198;6.570;2024-02-21T10:26:14;101421.69;;;8.65;100.00
20909;BME280;10614;53.198;6.570;2024-02-21T10:28:16;101412.13;;;8.62;100.00
20909;BME280;10614;53.198;6.570;2024-02-21T10:30:23;101409.47;;;8.64;100.00
20909;BME280;10614;53.198;6.570;2024-02-21T10:32:25;101398.25;;;8.57;100.00
20909;BME280;10614;53.198;6.570;2024-02-21T10:34:30;101394.59;;;8.64;100.00
20909;BME280;10614;53.198;6.570;2024-02-21T10:36:31;101398.72;;;8.73;100.00
20909;BME280;10614;53.198;6.570;2024-02-21T10:38:35;101397.81;;;8.76;100.00
20909;BME280;10614;53.198;6.570;2024-02-21T10:40:38;101394.25;;;8.78;100.00